Terminal Aerodrome Forecast
Issued by NWS

Home | Current Version | Previous Version | Text Only | Print | Product List | Glossary On
Versions: 1 2 3 4 5 6 7 8 9 10 11 12 13 14 15 16 17 18
000
FTAK31 PAJN 301739
TAFAGY
TAF
PAGY 301739Z 3018/0118 VRB03KT P6SM -RA SCT030 OVC060
     FM302200 20008KT 6SM -RA BR OVC030
     FM010300 21020G30KT P6SM VCSH SCT040 OVC060
     FM011500 21014G22KT P6SM VCSH OVC060
      AMD LTD TO CLD VIS AND WIND=

USA.gov is the U.S. government's official web portal to all federal, state and local government web resources and services.